Terminal Aerodrome Forecast
Issued by NWS Tuscon, AZ

Home | Current Version | Previous Version | Text Only | Print | Product List | Glossary On
Versions: 1 2 3 4 5 6 7 8 9 10 11 12
000
FTUS45 KTWC 301100
TAFTUS
TAF
KTUS 301127Z 3012/3112 14008KT P6SM SKC
     FM301700 13005KT P6SM SCT250
     FM302100 33005KT P6SM BKN250
     FM310400 14006KT P6SM FEW150 BKN250=

USA.gov is the U.S. government's official web portal to all federal, state and local government web resources and services.